Time;durP1;ratioP1;P1;durP2;ratioP2;P2;SDS_P1;SDS_P2;PMS_P1;PMS_P2;Temp;Humidity;BMP_temperature;BMP_pressure;BME280_temperature;BME280_humidity;BME280_pressure;Samples;Min_cycle;Max_cycle;Signal;HPM_P1;HPM_P2
2023/09/12 00:01:46;;;;;;;10.80;10.30;;;;;;;;;;5087772;28;20043;-64
2023/09/12 00:04:11;;;;;;;10.98;10.48;;;;;;;;;;5086642;28;20056;-64
2023/09/12 00:06:37;;;;;;;11.02;10.52;;;;;;;;;;5085180;28;20043;-64
2023/09/12 00:09:05;;;;;;;11.25;10.75;;;;;;;;;;5086253;28;20116;-64
2023/09/12 00:11:30;;;;;;;10.85;10.35;;;;;;;;;;5087610;28;20024;-64
2023/09/12 00:13:56;;;;;;;11.23;10.73;;;;;;;;;;5083391;28;20031;-63
2023/09/12 00:16:21;;;;;;;11.27;10.77;;;;;;;;;;5087720;28;20459;-65
2023/09/12 00:18:46;;;;;;;10.98;10.48;;;;;;;;;;5087470;28;21297;-64
2023/09/12 00:21:12;;;;;;;11.10;10.60;;;;;;;;;;5085526;28;20104;-63
2023/09/12 00:23:37;;;;;;;11.32;10.82;;;;;;;;;;5084937;28;20502;-63
2023/09/12 00:26:02;;;;;;;10.93;10.43;;;;;;;;;;5088688;28;20020;-63
2023/09/12 00:28:27;;;;;;;11.80;11.23;;;;;;;;;;5088221;28;20031;-62
2023/09/12 00:30:53;;;;;;;10.65;10.15;;;;;;;;;;5082592;28;20044;-63
2023/09/12 00:33:18;;;;;;;11.15;10.65;;;;;;;;;;5090928;28;20028;-63
2023/09/12 00:35:44;;;;;;;10.98;10.48;;;;;;;;;;5085965;28;20019;-63
2023/09/12 00:38:10;;;;;;;11.00;10.50;;;;;;;;;;5087462;28;20035;-63
2023/09/12 00:40:35;;;;;;;11.48;10.98;;;;;;;;;;5092938;28;20023;-64
2023/09/12 00:43:00;;;;;;;10.93;10.43;;;;;;;;;;5085912;28;20028;-64
2023/09/12 00:45:26;;;;;;;11.68;11.10;;;;;;;;;;5087772;28;20020;-63
2023/09/12 00:47:51;;;;;;;11.18;10.68;;;;;;;;;;5084586;28;20032;-63
2023/09/12 00:50:18;;;;;;;11.32;10.82;;;;;;;;;;5083422;28;20024;-64
2023/09/12 00:52:43;;;;;;;11.15;10.65;;;;;;;;;;5083359;28;21007;-63
2023/09/12 00:55:08;;;;;;;10.63;10.13;;;;;;;;;;5088563;28;20099;-63
2023/09/12 00:57:34;;;;;;;11.02;10.52;;;;;;;;;;5090763;28;20023;-65
2023/09/12 01:00:02;;;;;;;10.88;10.38;;;;;;;;;;5091139;28;20055;-64
2023/09/12 01:02:27;;;;;;;10.90;10.40;;;;;;;;;;5090405;28;20013;-63
2023/09/12 01:04:52;;;;;;;11.15;10.65;;;;;;;;;;5089911;28;20055;-64
2023/09/12 01:07:18;;;;;;;11.95;11.35;;;;;;;;;;5088916;28;20028;-63
2023/09/12 01:09:43;;;;;;;11.23;10.73;;;;;;;;;;5091807;28;20016;-63
2023/09/12 01:12:12;;;;;;;11.48;10.95;;;;;;;;;;5085000;28;20015;-63
2023/09/12 01:14:37;;;;;;;11.13;10.63;;;;;;;;;;5083293;28;20032;-63
2023/09/12 01:17:03;;;;;;;11.57;10.98;;;;;;;;;;5084228;28;20107;-63
2023/09/12 01:19:28;;;;;;;11.18;10.68;;;;;;;;;;5084697;28;20020;-63
2023/09/12 01:22:12;;;;;;;10.95;10.45;;;;;;;;;;5085682;28;20024;-63
2023/09/12 01:24:38;;;;;;;10.97;10.47;;;;;;;;;;5087668;28;20039;-64
2023/09/12 01:27:22;;;;;;;11.60;11.00;;;;;;;;;;5090672;28;20779;-64
2023/09/12 01:29:49;;;;;;;11.40;10.90;;;;;;;;;;5083959;28;20066;-64
2023/09/12 01:32:16;;;;;;;11.25;10.75;;;;;;;;;;5085051;28;20517;-63
2023/09/12 01:34:41;;;;;;;11.57;10.98;;;;;;;;;;5091188;28;20028;-62
2023/09/12 01:37:07;;;;;;;10.73;10.23;;;;;;;;;;5083931;28;20028;-64
2023/09/12 01:39:32;;;;;;;11.02;10.52;;;;;;;;;;5087802;28;20028;-64
2023/09/12 01:41:59;;;;;;;11.15;10.65;;;;;;;;;;5086964;28;20020;-63
2023/09/12 01:44:25;;;;;;;10.80;10.30;;;;;;;;;;5091671;28;20031;-64
2023/09/12 01:46:52;;;;;;;11.50;11.00;;;;;;;;;;5087424;28;20021;-64
2023/09/12 01:49:19;;;;;;;10.68;10.18;;;;;;;;;;5083720;28;20114;-63
2023/09/12 01:51:45;;;;;;;10.52;10.02;;;;;;;;;;5086692;28;20522;-64
2023/09/12 01:54:11;;;;;;;10.38;9.90;;;;;;;;;;5088259;28;20020;-63
2023/09/12 01:56:37;;;;;;;11.35;10.85;;;;;;;;;;5086155;28;20364;-63
2023/09/12 01:59:03;;;;;;;11.70;11.10;;;;;;;;;;5086656;28;20108;-63
2023/09/12 02:01:28;;;;;;;11.00;10.50;;;;;;;;;;5087205;28;20099;-63
2023/09/12 02:03:53;;;;;;;10.93;10.43;;;;;;;;;;5083795;28;20047;-64
2023/09/12 02:06:19;;;;;;;11.45;10.95;;;;;;;;;;5087844;28;20024;-64
2023/09/12 02:08:44;;;;;;;11.20;10.70;;;;;;;;;;5086438;28;20065;-64
2023/09/12 02:11:09;;;;;;;10.57;10.07;;;;;;;;;;5091512;28;20493;-64
2023/09/12 02:13:35;;;;;;;10.63;10.13;;;;;;;;;;5082958;28;20752;-63
2023/09/12 02:16:01;;;;;;;10.95;10.45;;;;;;;;;;5088211;28;20434;-62
2023/09/12 02:18:26;;;;;;;10.80;10.30;;;;;;;;;;5085639;28;20122;-63
2023/09/12 02:20:51;;;;;;;10.75;10.25;;;;;;;;;;5086464;28;20074;-63
2023/09/12 02:23:17;;;;;;;11.10;10.60;;;;;;;;;;5083897;28;20020;-64
2023/09/12 02:25:42;;;;;;;10.85;10.35;;;;;;;;;;5082767;28;20019;-63
2023/09/12 02:28:08;;;;;;;10.50;10.00;;;;;;;;;;5087538;28;20554;-62
2023/09/12 02:30:33;;;;;;;11.30;10.80;;;;;;;;;;5084410;28;20028;-63
2023/09/12 02:32:58;;;;;;;11.40;10.90;;;;;;;;;;5083945;28;20020;-64
2023/09/12 02:35:24;;;;;;;11.27;10.77;;;;;;;;;;5082923;28;20092;-64
2023/09/12 02:37:49;;;;;;;11.20;10.70;;;;;;;;;;5081025;28;20504;-63
2023/09/12 02:40:14;;;;;;;10.85;10.35;;;;;;;;;;5086954;28;20033;-63
2023/09/12 02:42:40;;;;;;;10.48;9.98;;;;;;;;;;5085251;28;20024;-63
2023/09/12 02:45:05;;;;;;;10.45;9.95;;;;;;;;;;5087578;28;20103;-63
2023/09/12 02:47:30;;;;;;;10.00;9.60;;;;;;;;;;5088616;28;20028;-64
2023/09/12 02:49:56;;;;;;;10.30;9.80;;;;;;;;;;5081474;28;20020;-64
2023/09/12 02:52:21;;;;;;;10.82;10.32;;;;;;;;;;5083844;28;20158;-63
2023/09/12 02:54:46;;;;;;;10.82;10.32;;;;;;;;;;5086036;28;20031;-63
2023/09/12 02:57:12;;;;;;;10.70;10.20;;;;;;;;;;5082949;28;20032;-63
2023/09/12 02:59:37;;;;;;;10.93;10.43;;;;;;;;;;5082389;28;20032;-64
2023/09/12 03:02:02;;;;;;;10.90;10.40;;;;;;;;;;5092483;28;20031;-63
2023/09/12 03:04:29;;;;;;;10.57;10.07;;;;;;;;;;5091190;28;20512;-63
2023/09/12 03:06:54;;;;;;;11.57;11.00;;;;;;;;;;5074402;28;20024;-63
2023/09/12 03:09:20;;;;;;;11.07;10.57;;;;;;;;;;5083481;28;20113;-65
2023/09/12 03:11:45;;;;;;;10.60;10.10;;;;;;;;;;5086773;28;20111;-63
2023/09/12 03:14:11;;;;;;;10.82;10.23;;;;;;;;;;5087401;28;20099;-64
2023/09/12 03:16:37;;;;;;;10.65;10.15;;;;;;;;;;5083333;28;20480;-64
2023/09/12 03:19:03;;;;;;;10.80;10.30;;;;;;;;;;5083501;28;20452;-63
2023/09/12 03:21:28;;;;;;;10.60;10.10;;;;;;;;;;5083709;28;20206;-63
2023/09/12 03:23:54;;;;;;;10.90;10.40;;;;;;;;;;5091711;28;20027;-63
2023/09/12 03:26:19;;;;;;;10.70;10.20;;;;;;;;;;5083861;28;20024;-64
2023/09/12 03:28:44;;;;;;;11.00;10.50;;;;;;;;;;5089255;28;20024;-64
2023/09/12 03:31:14;;;;;;;11.20;10.70;;;;;;;;;;5088804;28;20032;-63
2023/09/12 03:33:39;;;;;;;10.40;9.90;;;;;;;;;;5084363;28;20051;-64
2023/09/12 03:36:06;;;;;;;10.52;10.02;;;;;;;;;;5079114;28;20143;-63
2023/09/12 03:38:31;;;;;;;10.40;9.90;;;;;;;;;;5086465;28;20830;-63
2023/09/12 03:40:57;;;;;;;10.43;9.93;;;;;;;;;;5080700;28;20122;-63
2023/09/12 03:43:22;;;;;;;10.88;10.38;;;;;;;;;;5088275;28;20047;-64
2023/09/12 03:45:47;;;;;;;10.77;10.27;;;;;;;;;;5089053;28;20016;-64
2023/09/12 03:48:13;;;;;;;10.30;9.80;;;;;;;;;;5086664;28;20480;-64
2023/09/12 03:50:38;;;;;;;11.25;10.75;;;;;;;;;;5080881;28;20040;-64
2023/09/12 03:53:03;;;;;;;10.93;10.43;;;;;;;;;;5080718;28;20523;-63
2023/09/12 03:55:28;;;;;;;11.27;10.77;;;;;;;;;;5088235;28;20051;-64
2023/09/12 03:57:54;;;;;;;11.15;10.65;;;;;;;;;;5082743;28;20032;-65
2023/09/12 04:00:19;;;;;;;10.98;10.48;;;;;;;;;;5086935;28;20070;-64
2023/09/12 04:02:44;;;;;;;11.65;11.05;;;;;;;;;;5087269;28;20073;-64
2023/09/12 04:05:11;;;;;;;11.20;10.70;;;;;;;;;;5086903;28;20089;-64
2023/09/12 04:07:36;;;;;;;10.30;9.80;;;;;;;;;;5085051;28;20114;-65
2023/09/12 04:10:02;;;;;;;10.35;9.85;;;;;;;;;;5085779;28;20124;-64
2023/09/12 04:12:27;;;;;;;10.75;10.25;;;;;;;;;;5085354;28;20024;-63
2023/09/12 04:14:54;;;;;;;11.25;10.75;;;;;;;;;;5081158;28;20032;-64
2023/09/12 04:17:20;;;;;;;10.80;10.30;;;;;;;;;;5082556;28;20507;-65
2023/09/12 04:19:45;;;;;;;11.35;10.85;;;;;;;;;;5090361;28;20032;-66
2023/09/12 04:22:10;;;;;;;11.63;11.05;;;;;;;;;;5088454;28;20543;-64
2023/09/12 04:24:35;;;;;;;11.00;10.50;;;;;;;;;;5092025;28;20057;-64
2023/09/12 04:27:01;;;;;;;10.95;10.45;;;;;;;;;;5083786;28;20031;-64
2023/09/12 04:29:27;;;;;;;10.48;9.98;;;;;;;;;;5087831;28;20036;-64
2023/09/12 04:31:58;;;;;;;11.60;11.10;;;;;;;;;;5079563;28;20036;-64
2023/09/12 04:34:24;;;;;;;11.70;11.20;;;;;;;;;;5084462;28;20025;-63
2023/09/12 04:36:49;;;;;;;11.52;11.02;;;;;;;;;;5086758;28;20050;-64
2023/09/12 04:39:14;;;;;;;11.80;11.30;;;;;;;;;;5089134;28;20089;-66
2023/09/12 04:41:40;;;;;;;11.43;10.93;;;;;;;;;;5082780;28;20062;-66
2023/09/12 04:44:05;;;;;;;11.73;11.23;;;;;;;;;;5084444;28;20095;-64
2023/09/12 04:46:30;;;;;;;11.93;11.43;;;;;;;;;;5085695;28;20162;-66
2023/09/12 04:48:56;;;;;;;11.75;11.25;;;;;;;;;;5083473;28;20655;-65
2023/09/12 04:51:21;;;;;;;12.13;11.63;;;;;;;;;;5082147;28;20036;-65
2023/09/12 04:53:51;;;;;;;11.55;11.05;;;;;;;;;;5081273;28;20021;-66
2023/09/12 04:56:17;;;;;;;11.88;11.38;;;;;;;;;;5085281;28;20098;-65
2023/09/12 04:58:42;;;;;;;12.38;11.82;;;;;;;;;;5083106;28;20177;-66
2023/09/12 05:01:07;;;;;;;11.98;11.48;;;;;;;;;;5084637;28;20058;-66
2023/09/12 05:03:33;;;;;;;12.10;11.60;;;;;;;;;;5080174;28;20031;-67
2023/09/12 05:05:58;;;;;;;11.73;11.23;;;;;;;;;;5082463;28;20047;-61
2023/09/12 05:08:25;;;;;;;11.60;11.10;;;;;;;;;;5082156;28;20059;-63
2023/09/12 05:10:50;;;;;;;11.80;11.30;;;;;;;;;;5089350;28;20027;-62
2023/09/12 05:13:15;;;;;;;11.90;11.40;;;;;;;;;;5087870;28;20028;-63
2023/09/12 05:15:41;;;;;;;11.70;11.20;;;;;;;;;;5082021;28;20036;-62
2023/09/12 05:18:07;;;;;;;11.57;11.07;;;;;;;;;;5084532;28;20499;-62
2023/09/12 05:20:32;;;;;;;12.10;11.60;;;;;;;;;;5090180;28;20054;-62
2023/09/12 05:22:58;;;;;;;11.90;11.40;;;;;;;;;;5085140;28;20032;-62
2023/09/12 05:25:23;;;;;;;11.85;11.35;;;;;;;;;;5082687;28;20065;-62
2023/09/12 05:27:48;;;;;;;11.80;11.30;;;;;;;;;;5089160;28;20039;-62
2023/09/12 05:30:14;;;;;;;11.95;11.45;;;;;;;;;;5087032;28;20047;-63
2023/09/12 05:32:40;;;;;;;12.00;11.50;;;;;;;;;;5086304;28;20031;-65
2023/09/12 05:35:06;;;;;;;11.68;11.18;;;;;;;;;;5086157;28;20377;-61
2023/09/12 05:37:31;;;;;;;11.88;11.38;;;;;;;;;;5088221;28;20097;-60
2023/09/12 05:39:56;;;;;;;11.77;11.27;;;;;;;;;;5085349;28;20054;-62
2023/09/12 05:42:22;;;;;;;11.43;10.93;;;;;;;;;;5086088;28;20061;-62
2023/09/12 05:44:49;;;;;;;12.20;11.70;;;;;;;;;;5084694;28;20020;-64
2023/09/12 05:47:14;;;;;;;11.73;11.23;;;;;;;;;;5085920;28;20027;-63
2023/09/12 05:49:39;;;;;;;11.75;11.25;;;;;;;;;;5081313;28;20029;-63
2023/09/12 05:52:05;;;;;;;11.88;11.38;;;;;;;;;;5082634;28;20433;-64
2023/09/12 05:54:31;;;;;;;11.88;11.38;;;;;;;;;;5091843;28;20552;-63
2023/09/12 05:56:56;;;;;;;11.95;11.45;;;;;;;;;;5084149;28;20399;-64
2023/09/12 05:59:21;;;;;;;12.10;11.60;;;;;;;;;;5085343;28;20028;-63
2023/09/12 06:01:47;;;;;;;12.13;11.63;;;;;;;;;;5081438;28;20384;-63
2023/09/12 06:04:12;;;;;;;12.05;11.55;;;;;;;;;;5078690;28;20578;-63
2023/09/12 06:06:38;;;;;;;11.90;11.40;;;;;;;;;;5079528;28;20091;-64
2023/09/12 06:09:04;;;;;;;12.07;11.57;;;;;;;;;;5082766;28;20035;-63
2023/09/12 06:11:30;;;;;;;11.80;11.30;;;;;;;;;;5084233;28;20024;-62
2023/09/12 06:13:55;;;;;;;11.98;11.48;;;;;;;;;;5086834;28;20072;-62
2023/09/12 06:16:21;;;;;;;11.93;11.43;;;;;;;;;;5082379;28;20049;-62
2023/09/12 06:18:48;;;;;;;12.20;11.70;;;;;;;;;;5080915;28;20273;-62
2023/09/12 06:21:13;;;;;;;11.63;11.13;;;;;;;;;;5084534;28;20020;-63
2023/09/12 06:23:39;;;;;;;11.77;11.27;;;;;;;;;;5088980;28;20531;-64
2023/09/12 06:26:04;;;;;;;11.90;11.40;;;;;;;;;;5085183;28;20023;-62
2023/09/12 06:28:30;;;;;;;11.65;11.15;;;;;;;;;;5085338;28;20052;-61
2023/09/12 06:30:56;;;;;;;11.77;11.27;;;;;;;;;;5084510;28;20020;-61
2023/09/12 06:33:22;;;;;;;11.55;11.05;;;;;;;;;;5082261;28;20031;-63
2023/09/12 06:35:48;;;;;;;11.80;11.30;;;;;;;;;;5083490;28;20024;-62
2023/09/12 06:38:13;;;;;;;11.98;11.48;;;;;;;;;;5074055;28;20023;-65
2023/09/12 06:40:39;;;;;;;11.82;11.32;;;;;;;;;;5080590;28;20020;-62
2023/09/12 06:43:04;;;;;;;12.00;11.50;;;;;;;;;;5080274;28;20097;-65
2023/09/12 06:45:32;;;;;;;11.77;11.27;;;;;;;;;;5082524;28;20526;-66
2023/09/12 06:47:58;;;;;;;12.10;11.60;;;;;;;;;;5084997;28;20032;-61
2023/09/12 06:50:23;;;;;;;12.40;11.90;;;;;;;;;;5077264;28;20039;-65
2023/09/12 06:52:48;;;;;;;12.05;11.55;;;;;;;;;;5076764;28;20099;-65
2023/09/12 06:55:13;;;;;;;11.90;11.40;;;;;;;;;;5080545;28;20020;-66
2023/09/12 06:57:39;;;;;;;11.83;11.33;;;;;;;;;;5082688;28;20506;-62
2023/09/12 07:00:07;;;;;;;11.95;11.45;;;;;;;;;;5082979;28;20273;-65
2023/09/12 07:02:33;;;;;;;11.70;11.20;;;;;;;;;;5083661;28;20016;-63
2023/09/12 07:04:58;;;;;;;12.05;11.55;;;;;;;;;;5077836;28;20043;-63
2023/09/12 07:07:24;;;;;;;12.02;11.52;;;;;;;;;;5084649;28;20467;-65
2023/09/12 07:09:49;;;;;;;11.95;11.45;;;;;;;;;;5085171;28;20032;-66
2023/09/12 07:12:14;;;;;;;12.23;11.73;;;;;;;;;;5082867;28;20027;-66
2023/09/12 07:14:39;;;;;;;12.20;11.70;;;;;;;;;;5076488;28;20287;-67
2023/09/12 07:17:06;;;;;;;12.30;11.80;;;;;;;;;;5084770;28;20739;-65
2023/09/12 07:19:31;;;;;;;12.48;11.93;;;;;;;;;;5076708;28;20291;-65
2023/09/12 07:21:56;;;;;;;12.23;11.73;;;;;;;;;;5079739;28;20016;-66
2023/09/12 07:24:25;;;;;;;12.05;11.55;;;;;;;;;;5077964;28;20047;-67
2023/09/12 07:26:50;;;;;;;12.20;11.70;;;;;;;;;;5077707;28;20140;-68
2023/09/12 07:29:15;;;;;;;11.97;11.47;;;;;;;;;;5086833;28;20103;-65
2023/09/12 07:31:41;;;;;;;11.97;11.47;;;;;;;;;;5084639;28;21151;-66
2023/09/12 07:34:08;;;;;;;12.15;11.65;;;;;;;;;;5083770;28;20283;-65
2023/09/12 07:36:33;;;;;;;12.32;11.82;;;;;;;;;;5084678;28;20036;-68
2023/09/12 07:38:58;;;;;;;12.10;11.60;;;;;;;;;;5083383;28;20080;-65
2023/09/12 07:41:24;;;;;;;11.95;11.45;;;;;;;;;;5090907;28;20019;-66
2023/09/12 07:43:49;;;;;;;12.15;11.65;;;;;;;;;;5086243;28;20038;-65
2023/09/12 07:46:14;;;;;;;12.23;11.73;;;;;;;;;;5088656;28;20032;-66
2023/09/12 07:48:40;;;;;;;12.20;11.70;;;;;;;;;;5088719;28;20034;-66
2023/09/12 07:51:14;;;;;;;12.23;11.73;;;;;;;;;;5086392;28;20368;-67
2023/09/12 07:53:40;;;;;;;12.60;12.00;;;;;;;;;;5085300;28;20263;-69
2023/09/12 07:56:06;;;;;;;12.30;11.80;;;;;;;;;;5084754;28;20024;-68
2023/09/12 07:58:31;;;;;;;11.82;11.32;;;;;;;;;;5081209;28;20027;-68
2023/09/12 08:00:56;;;;;;;12.00;11.50;;;;;;;;;;5084412;28;20027;-66
2023/09/12 08:03:22;;;;;;;11.80;11.30;;;;;;;;;;5084741;28;20057;-69
2023/09/12 08:05:57;;;;;;;11.93;11.43;;;;;;;;;;5078852;28;20690;-67
2023/09/12 08:08:23;;;;;;;11.82;11.32;;;;;;;;;;5083434;28;20024;-65
2023/09/12 08:10:48;;;;;;;12.00;11.50;;;;;;;;;;5080387;28;20377;-68
2023/09/12 08:13:15;;;;;;;11.95;11.45;;;;;;;;;;5083000;28;20016;-66
2023/09/12 08:15:41;;;;;;;12.18;11.68;;;;;;;;;;5085206;28;20104;-67
2023/09/12 08:18:06;;;;;;;12.40;11.88;;;;;;;;;;5081059;28;20045;-67
2023/09/12 08:20:32;;;;;;;12.30;11.80;;;;;;;;;;5085383;28;20028;-67
2023/09/12 08:22:57;;;;;;;12.10;11.60;;;;;;;;;;5084054;28;20314;-66
2023/09/12 08:25:24;;;;;;;12.20;11.70;;;;;;;;;;5084495;28;20259;-68
2023/09/12 08:27:49;;;;;;;12.07;11.57;;;;;;;;;;5081204;28;20094;-65
2023/09/12 08:30:15;;;;;;;12.18;11.68;;;;;;;;;;5080560;28;20505;-65
2023/09/12 08:32:43;;;;;;;11.95;11.45;;;;;;;;;;5080833;28;20092;-66
2023/09/12 08:35:09;;;;;;;12.15;11.65;;;;;;;;;;5081653;28;20027;-63
2023/09/12 08:37:34;;;;;;;12.05;11.55;;;;;;;;;;5085150;28;20022;-66
2023/09/12 08:39:59;;;;;;;12.07;11.57;;;;;;;;;;5081882;28;20103;-64
2023/09/12 08:42:27;;;;;;;11.90;11.40;;;;;;;;;;5078960;28;20632;-66
2023/09/12 08:44:54;;;;;;;12.32;11.82;;;;;;;;;;5080611;28;20028;-73
2023/09/12 08:47:22;;;;;;;12.10;11.60;;;;;;;;;;5085332;28;20425;-71
2023/09/12 08:49:47;;;;;;;12.20;11.70;;;;;;;;;;5116648;27;20394;-72
2023/09/12 08:52:13;;;;;;;12.25;11.75;;;;;;;;;;5086033;28;20058;-73
2023/09/12 08:54:38;;;;;;;12.23;11.73;;;;;;;;;;5086810;28;20045;-71
2023/09/12 08:57:04;;;;;;;11.98;11.48;;;;;;;;;;5087403;28;20032;-71
2023/09/12 08:59:32;;;;;;;12.10;11.60;;;;;;;;;;5086174;28;20032;-72
2023/09/12 09:01:58;;;;;;;12.30;11.80;;;;;;;;;;5085737;28;20451;-71
2023/09/12 09:04:26;;;;;;;12.02;11.52;;;;;;;;;;5083655;28;20130;-72
2023/09/12 09:06:52;;;;;;;12.00;11.50;;;;;;;;;;5083821;28;20024;-71
2023/09/12 09:09:18;;;;;;;11.90;11.40;;;;;;;;;;5087717;28;20020;-70
2023/09/12 09:11:43;;;;;;;12.13;11.63;;;;;;;;;;5088059;28;20017;-71
2023/09/12 09:14:08;;;;;;;11.63;11.13;;;;;;;;;;5086199;28;20078;-70
2023/09/12 09:16:35;;;;;;;12.07;11.57;;;;;;;;;;5085310;28;20103;-71
2023/09/12 09:19:09;;;;;;;12.25;11.75;;;;;;;;;;5085934;28;20272;-70
2023/09/12 09:21:34;;;;;;;11.73;11.23;;;;;;;;;;5078177;28;20463;-71
2023/09/12 09:24:01;;;;;;;11.90;11.40;;;;;;;;;;5086949;28;20103;-70
2023/09/12 09:26:41;;;;;;;11.95;11.45;;;;;;;;;;5087268;28;20024;-71
2023/09/12 09:29:08;;;;;;;11.73;11.23;;;;;;;;;;5085184;28;20025;-70
2023/09/12 09:31:34;;;;;;;11.68;11.18;;;;;;;;;;5085752;28;20043;-71
2023/09/12 09:33:59;;;;;;;11.60;11.10;;;;;;;;;;5086353;28;20436;-69
2023/09/12 09:36:25;;;;;;;12.05;11.55;;;;;;;;;;5085692;28;20108;-69
2023/09/12 09:38:51;;;;;;;11.90;11.40;;;;;;;;;;5081492;28;20115;-69
2023/09/12 09:41:19;;;;;;;11.80;11.30;;;;;;;;;;5091919;28;20364;-70
2023/09/12 09:43:44;;;;;;;12.02;11.52;;;;;;;;;;5082586;28;20387;-71
2023/09/12 09:46:14;;;;;;;12.00;11.50;;;;;;;;;;5084689;28;20012;-71
2023/09/12 09:48:48;;;;;;;12.57;11.98;;;;;;;;;;5074318;28;20023;-67
2023/09/12 09:51:13;;;;;;;11.82;11.32;;;;;;;;;;5084216;28;20028;-68
2023/09/12 09:53:39;;;;;;;12.02;11.52;;;;;;;;;;5084827;28;20035;-67
2023/09/12 09:56:07;;;;;;;11.70;11.20;;;;;;;;;;5081713;28;20095;-67
2023/09/12 09:58:33;;;;;;;11.85;11.35;;;;;;;;;;5084711;28;20058;-67
2023/09/12 10:00:58;;;;;;;11.63;11.13;;;;;;;;;;5083930;28;20028;-68
2023/09/12 10:03:24;;;;;;;11.55;11.05;;;;;;;;;;5082419;28;20450;-68
2023/09/12 10:05:50;;;;;;;11.25;10.75;;;;;;;;;;5080349;28;20477;-73
2023/09/12 10:08:17;;;;;;;11.57;11.07;;;;;;;;;;5085099;28;20057;-67
2023/09/12 10:10:42;;;;;;;12.10;11.60;;;;;;;;;;5087541;28;20709;-66
2023/09/12 10:13:08;;;;;;;11.82;11.32;;;;;;;;;;5087655;28;20078;-66
2023/09/12 10:15:35;;;;;;;11.73;11.23;;;;;;;;;;5082676;28;20051;-66
2023/09/12 10:18:04;;;;;;;12.00;11.50;;;;;;;;;;5084248;28;20097;-66
2023/09/12 10:20:45;;;;;;;12.00;11.50;;;;;;;;;;5080478;28;20111;-66
2023/09/12 10:23:23;;;;;;;11.68;11.18;;;;;;;;;;5083224;28;20442;-66
2023/09/12 10:25:49;;;;;;;11.75;11.25;;;;;;;;;;5082367;28;20016;-67
2023/09/12 10:28:14;;;;;;;11.60;11.10;;;;;;;;;;5082422;28;20364;-67
2023/09/12 10:30:40;;;;;;;11.73;11.23;;;;;;;;;;5083756;28;20625;-66
2023/09/12 10:33:05;;;;;;;11.95;11.45;;;;;;;;;;5084271;28;20040;-67
2023/09/12 10:35:32;;;;;;;12.00;11.50;;;;;;;;;;5084576;28;20387;-76
2023/09/12 10:38:05;;;;;;;11.80;11.30;;;;;;;;;;5085582;28;20115;-74
2023/09/12 10:40:31;;;;;;;11.98;11.48;;;;;;;;;;5081455;28;20471;-74
2023/09/12 10:42:57;;;;;;;11.98;11.48;;;;;;;;;;5082228;28;20426;-73
2023/09/12 10:45:22;;;;;;;11.57;11.07;;;;;;;;;;5081495;28;20020;-74
2023/09/12 10:47:48;;;;;;;12.02;11.52;;;;;;;;;;5078180;28;20411;-74
2023/09/12 10:50:13;;;;;;;11.98;11.48;;;;;;;;;;5084894;28;20095;-67
2023/09/12 10:52:40;;;;;;;11.90;11.40;;;;;;;;;;5073725;28;20050;-64
2023/09/12 10:55:06;;;;;;;11.80;11.30;;;;;;;;;;5078606;28;20036;-64
2023/09/12 10:57:32;;;;;;;12.00;11.50;;;;;;;;;;5085595;28;20032;-65
2023/09/12 11:00:10;;;;;;;11.75;11.25;;;;;;;;;;5076211;28;20499;-64
2023/09/12 11:02:43;;;;;;;11.80;11.30;;;;;;;;;;5081070;28;20012;-65
2023/09/12 11:05:27;;;;;;;11.75;11.25;;;;;;;;;;5080693;28;20040;-65
2023/09/12 11:07:55;;;;;;;11.85;11.35;;;;;;;;;;5082956;28;20407;-65
2023/09/12 11:10:21;;;;;;;11.60;11.10;;;;;;;;;;5081549;28;20034;-64
2023/09/12 11:12:48;;;;;;;11.65;11.15;;;;;;;;;;5083787;28;20020;-64
2023/09/12 11:15:15;;;;;;;12.02;11.52;;;;;;;;;;5081479;28;20028;-66
2023/09/12 11:17:47;;;;;;;11.68;11.18;;;;;;;;;;5079801;28;20035;-66
2023/09/12 11:20:13;;;;;;;11.95;11.45;;;;;;;;;;5080821;28;20465;-65
2023/09/12 11:22:39;;;;;;;13.10;12.50;;;;;;;;;;5082415;28;20399;-66
2023/09/12 11:25:15;;;;;;;12.07;11.57;;;;;;;;;;5079964;28;20786;-65
2023/09/12 11:27:55;;;;;;;11.68;11.18;;;;;;;;;;5082178;28;20546;-64
2023/09/12 11:30:21;;;;;;;11.93;11.43;;;;;;;;;;5081401;28;20107;-65
2023/09/12 11:32:48;;;;;;;11.90;11.40;;;;;;;;;;5084169;28;20098;-67
2023/09/12 11:35:13;;;;;;;11.90;11.40;;;;;;;;;;5083588;28;20107;-66
2023/09/12 11:37:39;;;;;;;11.52;11.02;;;;;;;;;;5080193;28;20131;-65
2023/09/12 11:40:13;;;;;;;12.02;11.52;;;;;;;;;;5084239;28;20024;-66
2023/09/12 11:42:41;;;;;;;11.52;11.02;;;;;;;;;;5078526;28;20424;-67
2023/09/12 11:45:10;;;;;;;11.63;11.13;;;;;;;;;;5083897;28;20024;-66
2023/09/12 11:47:41;;;;;;;11.65;11.15;;;;;;;;;;5084087;28;20518;-67
2023/09/12 11:50:07;;;;;;;11.60;11.10;;;;;;;;;;5081496;28;20093;-65
2023/09/12 11:52:35;;;;;;;12.00;11.50;;;;;;;;;;5079141;28;20025;-64
2023/09/12 11:55:01;;;;;;;11.70;11.20;;;;;;;;;;5082262;28;20031;-67
2023/09/12 11:57:26;;;;;;;11.60;11.10;;;;;;;;;;5082118;28;20028;-72
2023/09/12 11:59:52;;;;;;;11.40;10.90;;;;;;;;;;5080723;28;20020;-67
2023/09/12 12:02:18;;;;;;;11.85;11.35;;;;;;;;;;5079803;28;20123;-63
2023/09/12 12:04:44;;;;;;;11.63;11.13;;;;;;;;;;5079514;28;20080;-63
2023/09/12 12:07:10;;;;;;;11.65;11.15;;;;;;;;;;5084656;28;20097;-66
2023/09/12 12:09:36;;;;;;;11.82;11.32;;;;;;;;;;5079698;28;20486;-66
2023/09/12 12:12:05;;;;;;;11.73;11.23;;;;;;;;;;5085500;28;20097;-64
2023/09/12 12:14:33;;;;;;;11.90;11.40;;;;;;;;;;5077274;28;20021;-67
2023/09/12 12:17:04;;;;;;;11.90;11.40;;;;;;;;;;5097563;27;20517;-66
2023/09/12 12:19:30;;;;;;;12.00;11.50;;;;;;;;;;5086383;28;20032;-66
2023/09/12 12:21:55;;;;;;;11.50;11.00;;;;;;;;;;5088130;28;21178;-67
2023/09/12 12:24:21;;;;;;;11.80;11.30;;;;;;;;;;5081618;28;20016;-66
2023/09/12 12:26:46;;;;;;;11.52;11.02;;;;;;;;;;5082248;28;20031;-67
2023/09/12 12:29:13;;;;;;;11.63;11.13;;;;;;;;;;5084519;28;20060;-65
2023/09/12 12:31:38;;;;;;;11.85;11.35;;;;;;;;;;5085966;28;20020;-68
2023/09/12 12:34:04;;;;;;;11.60;11.10;;;;;;;;;;5086273;28;20391;-66
2023/09/12 12:36:29;;;;;;;11.40;10.90;;;;;;;;;;5082639;28;20032;-66
2023/09/12 12:38:55;;;;;;;11.45;10.95;;;;;;;;;;5086013;28;20043;-66
2023/09/12 12:41:25;;;;;;;11.52;11.02;;;;;;;;;;5084797;28;20588;-65
2023/09/12 12:43:51;;;;;;;11.60;11.10;;;;;;;;;;5081636;28;20028;-66
2023/09/12 12:46:19;;;;;;;11.65;11.15;;;;;;;;;;5084465;28;20942;-65
2023/09/12 12:48:45;;;;;;;11.60;11.10;;;;;;;;;;5086146;28;20115;-65
2023/09/12 12:51:16;;;;;;;11.75;11.25;;;;;;;;;;5101414;27;20032;-67
2023/09/12 12:53:46;;;;;;;11.98;11.48;;;;;;;;;;5083400;28;20027;-67
2023/09/12 12:56:18;;;;;;;11.90;11.40;;;;;;;;;;5086065;28;20528;-64
2023/09/12 12:58:51;;;;;;;11.63;11.13;;;;;;;;;;5085229;28;20103;-65
2023/09/12 13:01:16;;;;;;;12.20;11.70;;;;;;;;;;5084963;28;20027;-65
2023/09/12 13:03:42;;;;;;;11.90;11.40;;;;;;;;;;5084111;28;20028;-67
2023/09/12 13:06:13;;;;;;;11.77;11.27;;;;;;;;;;5085166;28;20403;-65
2023/09/12 13:08:38;;;;;;;11.68;11.18;;;;;;;;;;5080726;28;20042;-66
2023/09/12 13:11:04;;;;;;;11.80;11.30;;;;;;;;;;5080218;28;20016;-68
2023/09/12 13:13:29;;;;;;;11.80;11.30;;;;;;;;;;5086291;28;20012;-66
2023/09/12 13:15:54;;;;;;;11.75;11.25;;;;;;;;;;5082295;28;20027;-66
2023/09/12 13:18:20;;;;;;;11.73;11.23;;;;;;;;;;5085792;28;20028;-66
2023/09/12 13:20:45;;;;;;;11.90;11.40;;;;;;;;;;5074344;28;20031;-66
2023/09/12 13:23:10;;;;;;;11.70;11.20;;;;;;;;;;5082141;28;20016;-66
2023/09/12 13:25:36;;;;;;;11.63;11.13;;;;;;;;;;5080366;28;20025;-70
2023/09/12 13:28:01;;;;;;;11.57;11.07;;;;;;;;;;5084324;28;20089;-71
2023/09/12 13:30:26;;;;;;;11.48;10.98;;;;;;;;;;5083944;28;20027;-71
2023/09/12 13:32:52;;;;;;;11.57;11.07;;;;;;;;;;5084179;28;20471;-71
2023/09/12 13:35:17;;;;;;;11.65;11.15;;;;;;;;;;5084526;28;20480;-71
2023/09/12 13:37:42;;;;;;;11.52;11.02;;;;;;;;;;5086265;28;20031;-70
2023/09/12 13:40:08;;;;;;;11.60;11.10;;;;;;;;;;5086705;28;20436;-71
2023/09/12 13:42:34;;;;;;;11.65;11.15;;;;;;;;;;5087521;28;20024;-72
2023/09/12 13:44:59;;;;;;;11.68;11.18;;;;;;;;;;5085366;28;20372;-71
2023/09/12 13:47:25;;;;;;;11.82;11.32;;;;;;;;;;5085516;28;20086;-71
2023/09/12 13:49:54;;;;;;;11.82;11.32;;;;;;;;;;5088198;28;20035;-72
2023/09/12 13:52:21;;;;;;;11.73;11.23;;;;;;;;;;5082866;28;20111;-71
2023/09/12 13:54:46;;;;;;;11.35;10.85;;;;;;;;;;5078302;28;20032;-66
2023/09/12 13:57:12;;;;;;;11.60;11.10;;;;;;;;;;5082662;28;20046;-68
2023/09/12 13:59:37;;;;;;;11.80;11.30;;;;;;;;;;5084416;28;20027;-67
2023/09/12 14:02:02;;;;;;;11.82;11.32;;;;;;;;;;5083927;28;20032;-67
2023/09/12 14:04:29;;;;;;;11.35;10.85;;;;;;;;;;5082514;28;20055;-66
2023/09/12 14:06:54;;;;;;;11.65;11.15;;;;;;;;;;5082378;28;20117;-65
2023/09/12 14:09:20;;;;;;;11.73;11.23;;;;;;;;;;5083835;28;20016;-64
2023/09/12 14:11:47;;;;;;;11.52;11.02;;;;;;;;;;5084556;28;20103;-67
2023/09/12 14:14:13;;;;;;;11.73;11.23;;;;;;;;;;5083592;28;20388;-69